Time;durP1;ratioP1;P1;durP2;ratioP2;P2;SDS_P1;SDS_P2;PMS_P1;PMS_P2;Temp;Humidity;BMP_temperature;BMP_pressure;BME280_temperature;BME280_humidity;BME280_pressure;Samples;Min_cycle;Max_cycle;Signal;HPM_P1;HPM_P2
2023/09/28 00:00:35;;;;;;;5.90;4.10;;;;;;;17.65;89.32;101213.22;5026001;28;20045;-70
2023/09/28 00:03:01;;;;;;;8.00;4.07;;;;;;;17.62;89.88;101220.91;5027575;28;20054;-70
2023/09/28 00:05:27;;;;;;;8.48;3.92;;;;;;;17.56;89.79;101227.88;5033601;28;20485;-69
2023/09/28 00:07:55;;;;;;;6.72;4.03;;;;;;;17.58;90.04;101223.13;5040542;28;20388;-70
2023/09/28 00:10:20;;;;;;;6.82;3.47;;;;;;;17.53;89.80;101225.41;5026980;28;20045;-69
2023/09/28 00:12:48;;;;;;;5.10;3.53;;;;;;;17.53;89.88;101223.56;5027160;28;20099;-70
2023/09/28 00:15:14;;;;;;;5.13;3.90;;;;;;;17.50;90.26;101231.22;5025090;28;20557;-69
2023/09/28 00:17:40;;;;;;;6.95;3.70;;;;;;;17.47;90.22;101228.75;5027152;28;20389;-71
2023/09/28 00:20:12;;;;;;;7.03;3.72;;;;;;;17.39;90.51;101231.38;5025978;28;20040;-69
2023/09/28 00:22:37;;;;;;;8.50;4.03;;;;;;;17.34;91.29;101232.66;5030801;28;20037;-71
2023/09/28 00:25:09;;;;;;;6.32;3.83;;;;;;;17.24;92.34;101229.06;5035653;28;20342;-70
2023/09/28 00:27:35;;;;;;;4.95;3.28;;;;;;;17.16;92.48;101236.28;5027760;28;20493;-70
2023/09/28 00:30:02;;;;;;;5.78;3.65;;;;;;;17.12;92.33;101243.13;5025522;28;20044;-70
2023/09/28 00:32:27;;;;;;;5.80;4.15;;;;;;;17.06;92.88;101239.91;5012046;28;20027;-69
2023/09/28 00:34:53;;;;;;;5.53;4.05;;;;;;;17.05;92.88;101245.56;5012711;28;20041;-69
2023/09/28 00:37:18;;;;;;;7.28;3.45;;;;;;;17.05;92.95;101248.31;5047670;28;20086;-69
2023/09/28 00:39:44;;;;;;;6.28;3.60;;;;;;;17.04;92.97;101252.06;5030989;28;20132;-70
2023/09/28 00:42:10;;;;;;;6.60;3.83;;;;;;;16.98;93.52;101259.00;5030357;28;20033;-70
2023/09/28 00:44:35;;;;;;;7.03;3.80;;;;;;;16.92;93.71;101253.19;5030417;28;20052;-69
2023/09/28 00:47:02;;;;;;;5.85;3.60;;;;;;;16.91;94.14;101260.56;5045586;28;20040;-69
2023/09/28 00:49:27;;;;;;;6.15;3.35;;;;;;;16.91;94.04;101268.81;5048843;28;20132;-70
2023/09/28 00:51:53;;;;;;;5.30;3.85;;;;;;;16.89;94.02;101267.25;5046265;28;20457;-69
2023/09/28 00:54:21;;;;;;;6.95;3.95;;;;;;;16.83;94.78;101258.56;5029679;28;20051;-70
2023/09/28 00:56:48;;;;;;;8.07;3.95;;;;;;;16.80;95.46;101258.81;5028575;28;20037;-70
2023/09/28 00:59:14;;;;;;;5.28;3.63;;;;;;;16.78;95.32;101259.97;5030086;28;20037;-70
2023/09/28 01:01:40;;;;;;;4.80;3.63;;;;;;;16.77;95.07;101250.84;5038658;28;20543;-70
2023/09/28 01:04:06;;;;;;;6.88;3.90;;;;;;;16.78;94.62;101246.22;5042997;28;20045;-70
2023/09/28 01:06:35;;;;;;;8.13;3.75;;;;;;;16.79;94.47;101243.34;5029627;28;20041;-70
2023/09/28 01:09:00;;;;;;;6.88;3.83;;;;;;;16.72;94.87;101253.16;5028925;28;20047;-71
2023/09/28 01:11:28;;;;;;;6.47;4.32;;;;;;;16.65;95.51;101257.47;5030142;28;20037;-69
2023/09/28 01:13:54;;;;;;;7.30;3.92;;;;;;;16.63;95.81;101262.22;5028758;28;20144;-70
2023/09/28 01:16:19;;;;;;;7.45;3.70;;;;;;;16.66;95.83;101263.81;5029859;28;20047;-69
2023/09/28 01:18:45;;;;;;;6.13;3.45;;;;;;;16.65;96.13;101265.72;5030290;28;20116;-70
2023/09/28 01:21:11;;;;;;;6.90;3.67;;;;;;;16.66;95.79;101259.19;5029709;28;20116;-69
2023/09/28 01:23:37;;;;;;;6.60;3.58;;;;;;;16.60;95.91;101257.03;5030018;28;20045;-71
2023/09/28 01:26:03;;;;;;;5.32;3.13;;;;;;;16.55;96.23;101257.44;5043937;28;20515;-68
2023/09/28 01:28:29;;;;;;;9.65;3.58;;;;;;;16.53;95.86;101259.44;5028429;28;20164;-69
2023/09/28 01:30:55;;;;;;;7.68;3.42;;;;;;;16.52;96.61;101267.84;5029694;28;20534;-69
2023/09/28 01:33:20;;;;;;;5.65;3.65;;;;;;;16.45;96.72;101261.13;5030020;28;20041;-69
2023/09/28 01:35:46;;;;;;;6.53;3.78;;;;;;;16.36;97.41;101249.09;5028508;28;20096;-70
2023/09/28 01:38:34;;;;;;;4.95;3.78;;;;;;;16.40;97.17;101263.44;5029187;28;20041;-71
2023/09/28 01:41:02;;;;;;;5.30;3.65;;;;;;;16.38;97.40;101259.97;5012552;28;20033;-70
2023/09/28 01:43:27;;;;;;;7.35;3.83;;;;;;;16.33;97.27;101261.25;5027066;28;20696;-69
2023/09/28 01:45:53;;;;;;;7.07;3.97;;;;;;;16.30;98.05;101264.25;5028065;28;20025;-70
2023/09/28 01:48:18;;;;;;;7.45;4.32;;;;;;;16.24;98.33;101262.09;5029750;28;20067;-70
2023/09/28 01:50:44;;;;;;;6.35;3.80;;;;;;;16.25;99.13;101272.06;5028089;28;20033;-69
2023/09/28 01:53:10;;;;;;;4.78;3.75;;;;;;;16.21;98.54;101272.47;5027726;28;20041;-70
2023/09/28 01:55:35;;;;;;;7.22;3.90;;;;;;;16.21;98.57;101269.72;5027761;28;20121;-69
2023/09/28 01:58:03;;;;;;;8.25;3.65;;;;;;;16.22;99.99;101265.97;5028547;28;20056;-70
2023/09/28 02:00:29;;;;;;;7.00;3.88;;;;;;;16.18;98.99;101283.69;5028291;28;20068;-69
2023/09/28 02:02:57;;;;;;;7.15;3.80;;;;;;;16.19;100.00;101275.34;5048161;28;20167;-69
2023/09/28 02:05:25;;;;;;;7.30;4.22;;;;;;;16.24;99.91;101286.78;5047849;28;20064;-69
2023/09/28 02:07:50;;;;;;;9.48;3.95;;;;;;;16.22;100.00;101280.53;5041923;28;20120;-70
2023/09/28 02:10:19;;;;;;;6.68;4.07;;;;;;;16.25;100.00;101298.63;5029468;28;20033;-69
2023/09/28 02:12:45;;;;;;;6.78;4.15;;;;;;;16.25;100.00;101301.38;5027938;28;20095;-70
2023/09/28 02:15:14;;;;;;;5.40;3.70;;;;;;;16.18;100.00;101298.34;5028841;28;20037;-71
2023/09/28 02:17:42;;;;;;;7.55;4.00;;;;;;;16.12;100.00;101304.34;5029188;28;20115;-70
2023/09/28 02:20:09;;;;;;;6.50;3.90;;;;;;;16.08;100.00;101301.00;5027740;28;20159;-70
2023/09/28 02:22:45;;;;;;;5.45;3.88;;;;;;;15.99;100.00;101299.09;5029396;28;20488;-72
2023/09/28 02:25:15;;;;;;;7.22;4.35;;;;;;;15.99;100.00;101296.34;5028496;28;20094;-70
2023/09/28 02:27:42;;;;;;;6.75;4.60;;;;;;;15.95;100.00;101302.25;5028892;28;20493;-70
2023/09/28 02:30:11;;;;;;;6.70;4.20;;;;;;;15.90;100.00;101302.66;5028519;28;20047;-70
2023/09/28 02:32:40;;;;;;;5.60;4.18;;;;;;;15.90;100.00;101299.00;5029209;28;20465;-71
2023/09/28 02:35:10;;;;;;;6.75;4.10;;;;;;;15.88;100.00;101293.66;5010831;28;20038;-71
2023/09/28 02:37:36;;;;;;;4.35;3.47;;;;;;;15.82;100.00;101297.81;5029185;28;20025;-70
2023/09/28 02:40:05;;;;;;;7.65;3.90;;;;;;;15.79;100.00;101308.19;5028728;28;20519;-71
2023/09/28 02:42:32;;;;;;;6.07;3.88;;;;;;;15.79;100.00;101308.19;5011726;28;20029;-70
2023/09/28 02:44:58;;;;;;;6.43;4.00;;;;;;;15.76;100.00;101305.69;5026175;28;20889;-70
2023/09/28 02:47:24;;;;;;;6.20;4.50;;;;;;;15.72;100.00;101307.00;5027499;28;20585;-71
2023/09/28 02:49:51;;;;;;;10.23;4.20;;;;;;;15.66;100.00;101302.88;5028419;28;20045;-71
2023/09/28 02:52:18;;;;;;;8.48;4.40;;;;;;;15.61;100.00;101309.75;5011085;28;20028;-69
2023/09/28 02:54:44;;;;;;;6.80;4.15;;;;;;;15.59;100.00;101309.00;5027991;28;20033;-69
2023/09/28 02:57:10;;;;;;;7.22;4.20;;;;;;;15.56;100.00;101316.47;5026710;28;20025;-71
2023/09/28 02:59:36;;;;;;;6.25;4.18;;;;;;;15.57;100.00;101315.50;5026578;28;20127;-69
2023/09/28 03:02:03;;;;;;;5.22;4.07;;;;;;;15.57;100.00;101311.88;5028666;28;20423;-70
2023/09/28 03:04:31;;;;;;;9.23;4.45;;;;;;;15.52;100.00;101317.75;5026676;28;20041;-71
2023/09/28 03:06:57;;;;;;;8.13;4.53;;;;;;;15.55;100.00;101314.75;5026983;28;20056;-70
2023/09/28 03:09:26;;;;;;;6.38;4.03;;;;;;;15.47;100.00;101322.75;5027564;28;20077;-71
2023/09/28 03:11:51;;;;;;;7.57;4.47;;;;;;;15.46;100.00;101326.50;5027940;28;20029;-70
2023/09/28 03:14:19;;;;;;;6.18;3.92;;;;;;;15.44;100.00;101322.19;5027481;28;20028;-70
2023/09/28 03:16:44;;;;;;;5.43;3.70;;;;;;;15.40;100.00;101332.53;5027767;28;20458;-69
2023/09/28 03:19:10;;;;;;;9.90;4.30;;;;;;;15.43;100.00;101337.72;5026478;28;20111;-71
2023/09/28 03:21:36;;;;;;;6.47;4.90;;;;;;;15.42;100.00;101327.78;5027693;28;20496;-70
2023/09/28 03:24:01;;;;;;;9.85;4.47;;;;;;;15.38;100.00;101337.25;5027719;28;20088;-70
2023/09/28 03:26:30;;;;;;;8.60;4.80;;;;;;;15.39;100.00;101335.38;5026601;28;20053;-69
2023/09/28 03:28:56;;;;;;;11.18;5.28;;;;;;;15.32;100.00;101335.91;5027705;28;20080;-70
2023/09/28 03:31:27;;;;;;;7.53;4.72;;;;;;;15.25;100.00;101339.31;5010013;28;20064;-70
2023/09/28 03:33:54;;;;;;;10.40;4.82;;;;;;;15.25;100.00;101345.66;5027824;28;20041;-70
2023/09/28 03:36:19;;;;;;;8.77;5.20;;;;;;;15.29;100.00;101347.16;5028108;28;20407;-71
2023/09/28 03:38:45;;;;;;;9.45;4.72;;;;;;;15.28;100.00;101347.25;5040163;28;20033;-70
2023/09/28 03:41:10;;;;;;;6.15;5.15;;;;;;;15.28;100.00;101352.75;5040969;28;20044;-70
2023/09/28 03:43:36;;;;;;;7.82;4.50;;;;;;;15.24;100.00;101360.34;5030137;28;20037;-70
2023/09/28 03:46:02;;;;;;;9.98;5.40;;;;;;;15.23;100.00;101365.97;5027810;28;20053;-70
2023/09/28 03:48:27;;;;;;;10.73;4.70;;;;;;;15.18;100.00;101363.63;5028000;28;20132;-70
2023/09/28 03:50:53;;;;;;;7.85;4.95;;;;;;;15.19;100.00;101369.97;5026571;28;20116;-70
2023/09/28 03:53:18;;;;;;;9.32;5.10;;;;;;;15.16;100.00;101376.59;5036375;28;20045;-70
2023/09/28 03:55:47;;;;;;;8.95;4.95;;;;;;;15.12;100.00;101372.34;5045912;28;20094;-70
2023/09/28 03:58:14;;;;;;;7.75;5.78;;;;;;;15.10;100.00;101373.47;5047369;28;20060;-70
2023/09/28 04:00:39;;;;;;;11.00;5.57;;;;;;;15.08;100.00;101375.47;5035047;28;20120;-70
2023/09/28 04:03:07;;;;;;;9.45;5.28;;;;;;;15.00;100.00;101373.34;5026927;28;20136;-71
2023/09/28 04:05:32;;;;;;;7.75;5.20;;;;;;;14.98;100.00;101373.50;5028608;28;20037;-70
2023/09/28 04:07:58;;;;;;;8.13;4.85;;;;;;;15.00;100.00;101381.59;5031600;28;20095;-70
2023/09/28 04:10:23;;;;;;;7.82;4.88;;;;;;;14.93;100.00;101378.50;5031681;28;20447;-70
2023/09/28 04:12:49;;;;;;;8.00;4.88;;;;;;;14.86;100.00;101381.84;5031559;28;20030;-70
2023/09/28 04:15:16;;;;;;;7.55;5.63;;;;;;;14.87;100.00;101384.44;5029710;28;20021;-70
2023/09/28 04:17:41;;;;;;;7.18;4.68;;;;;;;14.84;100.00;101375.63;5031432;28;20043;-70
2023/09/28 04:20:09;;;;;;;8.63;5.07;;;;;;;14.87;100.00;101376.22;5031460;28;20038;-70
2023/09/28 04:22:35;;;;;;;7.55;5.32;;;;;;;14.85;100.00;101377.38;5032695;28;20104;-71
2023/09/28 04:25:01;;;;;;;12.75;5.68;;;;;;;14.82;100.00;101377.63;5042414;28;20573;-70
2023/09/28 04:27:26;;;;;;;10.35;5.80;;;;;;;14.83;100.00;101379.34;5031221;28;20124;-70
2023/09/28 04:29:52;;;;;;;7.53;5.30;;;;;;;14.77;100.00;101380.72;5030456;28;20113;-70
2023/09/28 04:32:18;;;;;;;6.50;4.57;;;;;;;14.70;100.00;101377.63;5031471;28;20041;-70
2023/09/28 04:34:43;;;;;;;8.77;5.07;;;;;;;14.70;100.00;101377.63;5029436;28;20107;-70
2023/09/28 04:37:08;;;;;;;10.60;5.05;;;;;;;14.67;100.00;101394.31;5013173;28;20064;-71
2023/09/28 04:39:34;;;;;;;11.98;5.43;;;;;;;14.62;100.00;101388.31;5031215;28;20041;-71
2023/09/28 04:42:00;;;;;;;6.28;4.53;;;;;;;14.59;100.00;101391.31;5031273;28;20025;-70
2023/09/28 04:44:25;;;;;;;7.07;5.55;;;;;;;14.61;100.00;101396.69;5030510;28;20044;-70
2023/09/28 04:46:51;;;;;;;7.65;5.18;;;;;;;14.54;100.00;101391.66;5028258;28;20485;-69
2023/09/28 04:49:20;;;;;;;6.10;4.80;;;;;;;14.50;100.00;101405.72;5029950;28;20046;-69
2023/09/28 04:51:46;;;;;;;8.90;5.80;;;;;;;14.45;100.00;101408.81;5042866;28;20097;-70
2023/09/28 04:54:11;;;;;;;9.80;6.35;;;;;;;14.41;100.00;101398.22;5028615;28;20034;-70
2023/09/28 04:56:38;;;;;;;7.13;5.15;;;;;;;14.35;100.00;101398.72;5030319;28;20040;-70
2023/09/28 04:59:03;;;;;;;7.63;5.65;;;;;;;14.32;100.00;101398.97;5030667;28;20420;-70
2023/09/28 05:01:28;;;;;;;9.77;5.43;;;;;;;14.28;100.00;101407.44;5029817;28;20037;-70
2023/09/28 05:03:54;;;;;;;9.55;5.63;;;;;;;14.25;100.00;101425.94;5030502;28;20068;-70
2023/09/28 05:06:20;;;;;;;8.25;5.40;;;;;;;14.22;100.00;101434.38;5030190;28;20466;-70
2023/09/28 05:08:45;;;;;;;8.80;6.30;;;;;;;14.25;100.00;101437.75;5030044;28;20025;-70
2023/09/28 05:11:10;;;;;;;12.40;6.57;;;;;;;14.27;100.00;101443.13;5028933;28;20036;-70
2023/09/28 05:13:36;;;;;;;11.52;6.13;;;;;;;14.28;100.00;101439.41;5032009;28;20496;-71
2023/09/28 05:16:02;;;;;;;9.00;6.68;;;;;;;14.33;100.00;101447.25;5033341;28;20473;-70
2023/09/28 05:18:27;;;;;;;13.13;6.82;;;;;;;14.37;100.00;101449.63;5028069;28;20045;-70
2023/09/28 05:20:52;;;;;;;8.98;6.22;;;;;;;14.39;100.00;101460.44;5046608;28;20122;-70
2023/09/28 05:23:19;;;;;;;10.65;6.15;;;;;;;14.40;100.00;101453.97;5040436;28;20029;-68
2023/09/28 05:25:44;;;;;;;13.63;6.22;;;;;;;14.40;100.00;101456.72;5028054;28;20140;-70
2023/09/28 05:28:10;;;;;;;13.98;6.90;;;;;;;14.38;100.00;101465.06;5027613;28;20479;-71
2023/09/28 05:30:35;;;;;;;11.02;5.85;;;;;;;14.38;100.00;101470.53;5029653;28;20469;-71
2023/09/28 05:33:01;;;;;;;9.77;5.80;;;;;;;14.37;100.00;101474.25;5028725;28;20123;-70
2023/09/28 05:35:26;;;;;;;13.10;7.05;;;;;;;14.39;100.00;101476.88;5028859;28;20409;-70
2023/09/28 05:37:52;;;;;;;11.10;5.88;;;;;;;14.36;100.00;101474.38;5028924;28;20037;-70
2023/09/28 05:40:18;;;;;;;10.38;6.03;;;;;;;14.29;100.00;101471.25;5011738;28;20069;-70
2023/09/28 05:42:43;;;;;;;11.50;6.07;;;;;;;14.28;100.00;101484.06;5027752;28;20045;-70
2023/09/28 05:45:12;;;;;;;10.20;5.68;;;;;;;14.28;100.00;101474.97;5028778;28;20471;-71
2023/09/28 05:47:38;;;;;;;16.20;6.38;;;;;;;14.24;100.00;101485.28;5028230;28;20044;-71
2023/09/28 05:50:04;;;;;;;9.00;6.00;;;;;;;14.23;100.00;101496.38;5029565;28;20029;-70
2023/09/28 05:52:30;;;;;;;11.40;5.60;;;;;;;14.19;100.00;101490.25;5027990;28;20107;-71
2023/09/28 05:54:55;;;;;;;9.00;5.60;;;;;;;14.16;100.00;101489.59;5027651;28;20033;-71
2023/09/28 05:57:22;;;;;;;10.77;6.00;;;;;;;14.20;100.00;101493.84;5029246;28;20033;-70
2023/09/28 05:59:48;;;;;;;11.93;6.63;;;;;;;14.18;100.00;101507.66;5027139;28;20037;-70
2023/09/28 06:02:14;;;;;;;7.80;5.40;;;;;;;14.15;100.00;101517.97;5029123;28;20049;-70
2023/09/28 06:04:40;;;;;;;11.23;6.10;;;;;;;14.16;100.00;101508.75;5027854;28;20110;-70
2023/09/28 06:07:05;;;;;;;9.60;6.05;;;;;;;14.15;100.00;101520.72;5028892;28;20473;-71
2023/09/28 06:09:30;;;;;;;9.50;5.72;;;;;;;14.16;100.00;101520.56;5027448;28;20548;-70
2023/09/28 06:11:57;;;;;;;12.57;5.53;;;;;;;14.19;100.00;101505.81;5028909;28;20501;-70
2023/09/28 06:14:23;;;;;;;9.82;5.43;;;;;;;14.14;100.00;101506.16;5027062;28;20101;-70
2023/09/28 06:16:48;;;;;;;15.32;5.90;;;;;;;14.16;100.00;101501.41;5028748;28;20049;-70
2023/09/28 06:19:14;;;;;;;10.00;5.75;;;;;;;14.17;100.00;101499.56;5029026;28;20473;-70
2023/09/28 06:21:40;;;;;;;10.35;6.13;;;;;;;14.19;100.00;101505.81;5028829;28;20503;-71
2023/09/28 06:24:05;;;;;;;10.57;5.68;;;;;;;14.21;100.00;101517.50;5027184;28;20370;-71
2023/09/28 06:26:32;;;;;;;10.48;5.10;;;;;;;14.20;100.00;101523.97;5029077;28;20092;-70
2023/09/28 06:28:57;;;;;;;9.88;5.38;;;;;;;14.23;100.00;101527.34;5027148;28;20029;-70
2023/09/28 06:31:23;;;;;;;7.55;4.30;;;;;;;14.21;100.00;101539.38;5028457;28;20038;-71
2023/09/28 06:33:49;;;;;;;8.35;5.10;;;;;;;14.18;100.00;101548.72;5027413;28;20088;-71
2023/09/28 06:36:16;;;;;;;9.13;4.85;;;;;;;14.18;100.00;101545.97;5028520;28;20499;-70
2023/09/28 06:38:42;;;;;;;8.52;5.38;;;;;;;14.20;100.00;101543.13;5026549;28;20144;-71
2023/09/28 06:41:07;;;;;;;12.55;5.18;;;;;;;14.24;100.00;101544.63;5028392;28;20047;-71
2023/09/28 06:43:35;;;;;;;13.45;5.78;;;;;;;14.29;100.00;101540.53;5028650;28;20026;-71
2023/09/28 06:46:01;;;;;;;11.75;6.28;;;;;;;14.41;100.00;101541.47;5028572;28;20052;-71
2023/09/28 06:48:27;;;;;;;13.98;5.85;;;;;;;14.57;100.00;101534.84;5028331;28;20021;-71
2023/09/28 06:50:56;;;;;;;14.60;5.13;;;;;;;14.63;100.00;101539.81;5033664;28;20036;-70
2023/09/28 06:53:22;;;;;;;11.80;5.07;;;;;;;14.66;100.00;101554.16;5038539;28;20045;-71
2023/09/28 06:55:48;;;;;;;12.65;5.10;;;;;;;14.78;100.00;101563.25;5026529;28;20087;-71
2023/09/28 06:58:15;;;;;;;15.20;5.60;;;;;;;14.92;100.00;101570.38;5027618;28;20041;-71
2023/09/28 07:00:41;;;;;;;17.50;5.90;;;;;;;14.97;100.00;101566.31;5026763;28;20025;-71
2023/09/28 07:03:08;;;;;;;18.85;5.63;;;;;;;15.00;100.00;101565.19;5026410;28;20405;-71
2023/09/28 07:05:34;;;;;;;16.13;4.97;;;;;;;15.01;100.00;101575.13;5028501;28;20048;-71
2023/09/28 07:08:00;;;;;;;16.60;5.00;;;;;;;15.08;100.00;101581.88;5032534;28;20816;-71
2023/09/28 07:10:26;;;;;;;20.63;5.75;;;;;;;15.20;100.00;101582.75;5047282;28;20049;-70
2023/09/28 07:12:52;;;;;;;18.52;5.18;;;;;;;15.29;100.00;101571.97;5047854;28;20043;-70
2023/09/28 07:15:18;;;;;;;17.02;5.28;;;;;;;15.37;100.00;101575.94;5036084;28;20034;-70
2023/09/28 07:17:44;;;;;;;16.90;5.78;;;;;;;15.46;100.00;101566.97;5027768;28;20033;-71
2023/09/28 07:20:14;;;;;;;17.02;5.22;;;;;;;15.54;100.00;101575.44;5027956;28;20043;-71
2023/09/28 07:22:40;;;;;;;19.70;4.55;;;;;;;15.58;100.00;101579.69;5029784;28;20060;-71
2023/09/28 07:25:06;;;;;;;17.65;4.78;;;;;;;15.57;100.00;101570.59;5045723;28;20029;-72
2023/09/28 07:27:32;;;;;;;19.10;4.32;;;;;;;15.59;100.00;101561.34;5048119;28;20045;-71
2023/09/28 07:30:05;;;;;;;24.20;4.88;;;;;;;15.57;100.00;101566.94;5041460;28;20079;-70
2023/09/28 07:32:30;;;;;;;17.95;4.05;;;;;;;15.51;100.00;101564.72;5028370;28;20466;-71
2023/09/28 07:34:56;;;;;;;25.27;4.82;;;;;;;15.49;100.00;101591.41;5026147;28;20146;-71
2023/09/28 07:37:24;;;;;;;18.48;3.72;;;;;;;15.48;100.00;101597.84;5027326;28;20044;-71
2023/09/28 07:39:50;;;;;;;17.55;4.97;;;;;;;15.52;100.00;101596.63;5027151;28;20037;-71
2023/09/28 07:42:15;;;;;;;21.70;4.30;;;;;;;15.57;100.00;101586.13;5026721;28;20071;-71
2023/09/28 07:44:40;;;;;;;20.88;3.58;;;;;;;15.66;100.00;101606.50;5025712;28;20033;-70
2023/09/28 07:47:08;;;;;;;23.52;4.07;;;;;;;15.70;100.00;101606.13;5027479;28;20041;-70
2023/09/28 07:49:34;;;;;;;12.20;3.55;;;;;;;15.75;100.00;101603.00;5026762;28;20037;-71
2023/09/28 07:52:00;;;;;;;12.45;3.00;;;;;;;15.79;100.00;101597.13;5034009;28;20032;-70
2023/09/28 07:54:25;;;;;;;17.23;4.03;;;;;;;15.88;100.00;101605.63;5028897;28;20108;-71
2023/09/28 07:56:51;;;;;;;19.92;4.05;;;;;;;15.97;100.00;101604.84;5031268;28;20120;-71
2023/09/28 07:59:16;;;;;;;20.45;3.80;;;;;;;16.03;100.00;101607.94;5047029;28;20040;-71
2023/09/28 08:01:42;;;;;;;18.75;3.40;;;;;;;16.11;100.00;101615.56;5027325;28;20045;-71
2023/09/28 08:04:08;;;;;;;17.65;3.97;;;;;;;16.18;100.00;101614.06;5027249;28;20042;-71
2023/09/28 08:06:34;;;;;;;13.85;3.83;;;;;;;16.28;100.00;101625.13;5028136;28;20043;-71
2023/09/28 08:09:00;;;;;;;15.93;3.97;;;;;;;16.38;100.00;101622.47;5040216;28;20032;-71
2023/09/28 08:11:26;;;;;;;24.25;4.45;;;;;;;16.44;99.05;101617.31;5047119;28;20040;-70
2023/09/28 08:13:51;;;;;;;17.95;4.03;;;;;;;16.54;100.00;101626.53;5045551;28;20032;-70
2023/09/28 08:16:16;;;;;;;18.08;4.05;;;;;;;16.63;98.99;101630.34;5030625;28;20079;-70
2023/09/28 08:18:42;;;;;;;18.98;4.15;;;;;;;16.72;98.06;101635.09;5027110;28;20525;-71
2023/09/28 08:21:08;;;;;;;17.98;3.10;;;;;;;16.83;98.33;101628.66;5027182;28;20034;-71
2023/09/28 08:23:33;;;;;;;24.05;4.53;;;;;;;16.94;97.17;101625.00;5027054;28;20045;-71
2023/09/28 08:25:59;;;;;;;22.70;3.63;;;;;;;17.04;96.67;101625.94;5027057;28;20420;-70
2023/09/28 08:28:24;;;;;;;27.48;4.15;;;;;;;17.13;95.62;101638.03;5025447;28;20115;-70
2023/09/28 08:30:49;;;;;;;19.70;3.45;;;;;;;17.17;93.62;101643.13;5039150;28;20393;-71
2023/09/28 08:33:16;;;;;;;18.83;3.58;;;;;;;17.22;93.04;101632.59;5047052;28;20403;-70
2023/09/28 08:35:47;;;;;;;20.67;3.50;;;;;;;17.39;94.53;101642.09;5036472;28;20088;-71
2023/09/28 08:38:13;;;;;;;23.40;4.40;;;;;;;17.49;92.61;101643.03;5026860;28;20465;-71
2023/09/28 08:40:39;;;;;;;17.30;4.07;;;;;;;17.60;93.79;101648.44;5026624;28;20037;-71
2023/09/28 08:43:10;;;;;;;17.77;4.18;;;;;;;17.68;90.02;101656.03;5028036;28;20578;-71
2023/09/28 08:45:38;;;;;;;20.05;3.72;;;;;;;17.75;90.71;101659.97;5027218;28;20045;-70
2023/09/28 08:48:06;;;;;;;16.92;3.90;;;;;;;17.88;91.26;101664.41;5027891;28;20026;-69
2023/09/28 08:50:37;;;;;;;15.25;4.43;;;;;;;18.08;92.14;101661.56;5027391;28;20492;-71
2023/09/28 08:53:05;;;;;;;26.58;4.80;;;;;;;18.26;88.62;101678.28;5027948;28;20738;-70
2023/09/28 08:55:33;;;;;;;18.40;4.03;;;;;;;18.44;90.32;101666.59;5030771;28;20500;-70
2023/09/28 08:57:59;;;;;;;26.67;4.70;;;;;;;18.66;89.99;101670.97;5030715;28;20824;-71
2023/09/28 09:00:25;;;;;;;23.38;4.32;;;;;;;18.79;87.56;101666.06;5029552;28;20045;-71
2023/09/28 09:02:51;;;;;;;20.45;4.22;;;;;;;18.75;84.41;101667.41;5029057;28;20122;-71
2023/09/28 09:05:17;;;;;;;16.40;4.50;;;;;;;18.70;84.63;101673.34;5029192;28;20712;-71
2023/09/28 09:07:43;;;;;;;17.95;4.78;;;;;;;18.72;84.11;101676.81;5028845;28;20033;-69
2023/09/28 09:10:12;;;;;;;22.95;5.45;;;;;;;18.79;82.85;101671.56;5012457;28;20029;-70
2023/09/28 09:12:39;;;;;;;21.13;6.22;;;;;;;18.95;82.56;101682.06;5030356;28;20083;-69
2023/09/28 09:15:05;;;;;;;21.92;4.97;;;;;;;19.01;84.05;101673.19;5035012;28;20032;-70
2023/09/28 09:17:34;;;;;;;19.90;5.28;;;;;;;19.06;80.98;101681.88;5050048;28;20043;-70
2023/09/28 09:20:00;;;;;;;18.15;5.22;;;;;;;19.16;80.21;101670.84;5035293;28;20052;-69
2023/09/28 09:22:27;;;;;;;22.98;5.93;;;;;;;19.34;80.90;101671.84;5030646;28;20037;-69
2023/09/28 09:24:58;;;;;;;21.40;5.90;;;;;;;19.53;80.92;101669.03;5029311;28;20041;-68
2023/09/28 09:27:28;;;;;;;23.33;5.90;;;;;;;19.71;81.18;101671.06;5028792;28;20029;-71
2023/09/28 09:30:08;;;;;;;22.67;5.22;;;;;;;19.93;79.31;101673.44;5028264;28;20481;-71
2023/09/28 09:32:34;;;;;;;20.42;5.30;;;;;;;19.94;75.49;101685.38;5036567;28;20484;-70
2023/09/28 09:35:00;;;;;;;16.67;4.55;;;;;;;19.86;76.75;101680.59;5049917;28;20464;-70
2023/09/28 09:37:26;;;;;;;18.60;5.03;;;;;;;19.79;73.99;101679.47;5039192;28;20079;-70
2023/09/28 09:39:51;;;;;;;18.23;4.55;;;;;;;19.69;73.28;101684.16;5029221;28;20034;-69
2023/09/28 09:42:26;;;;;;;23.05;4.40;;;;;;;19.70;77.24;101691.41;5029664;28;20554;-70
2023/09/28 09:44:52;;;;;;;19.40;4.32;;;;;;;19.91;77.50;101675.50;5028907;28;20044;-70
2023/09/28 09:47:19;;;;;;;26.23;4.75;;;;;;;20.02;76.12;101685.47;5029940;28;20053;-69
2023/09/28 09:49:48;;;;;;;18.08;4.05;;;;;;;20.10;76.20;101675.41;5029863;28;20152;-70
2023/09/28 09:52:14;;;;;;;19.92;4.72;;;;;;;20.12;74.01;101689.94;5030033;28;20017;-70
2023/09/28 09:54:40;;;;;;;19.40;3.67;;;;;;;20.12;73.28;101686.31;5029556;28;20041;-71
2023/09/28 09:57:09;;;;;;;15.65;3.50;;;;;;;20.08;73.48;101682.97;5027869;28;20033;-70
2023/09/28 09:59:38;;;;;;;18.25;4.10;;;;;;;20.00;74.22;101685.63;5029551;28;20079;-71
2023/09/28 10:02:04;;;;;;;14.40;3.30;;;;;;;19.97;72.76;101697.00;5041284;28;20461;-70
2023/09/28 10:04:31;;;;;;;17.60;3.65;;;;;;;19.85;72.70;101689.91;5048140;28;20128;-72
2023/09/28 10:07:00;;;;;;;20.63;3.53;;;;;;;19.71;73.59;101682.09;5049209;28;20051;-70
2023/09/28 10:09:25;;;;;;;22.83;3.42;;;;;;;19.84;74.60;101689.03;5048172;28;20068;-69
2023/09/28 10:11:52;;;;;;;17.13;3.80;;;;;;;20.12;74.86;101673.34;5049060;28;20441;-69
2023/09/28 10:14:20;;;;;;;14.43;3.47;;;;;;;20.44;74.97;101679.44;5047561;28;20029;-69
2023/09/28 10:16:49;;;;;;;20.63;4.10;;;;;;;20.63;71.25;101652.56;5044148;28;20029;-70
2023/09/28 10:19:19;;;;;;;16.15;4.10;;;;;;;20.85;70.85;101658.66;5029135;28;20045;-70
2023/09/28 10:21:44;;;;;;;17.08;3.88;;;;;;;20.78;69.13;101652.00;5029408;28;20557;-70
2023/09/28 10:24:14;;;;;;;21.63;3.63;;;;;;;20.79;70.14;101649.06;5028256;28;20108;-70
2023/09/28 10:26:49;;;;;;;17.75;3.88;;;;;;;20.91;70.43;101649.72;5028716;28;20445;-69
2023/09/28 10:29:19;;;;;;;16.90;3.45;;;;;;;20.99;69.95;101646.16;5028458;28;20547;-69
2023/09/28 10:31:46;;;;;;;17.15;3.75;;;;;;;20.96;69.55;101649.25;5028641;28;20041;-71
2023/09/28 10:34:19;;;;;;;18.85;3.80;;;;;;;20.94;70.40;101654.94;5010899;28;20067;-69
2023/09/28 10:37:04;;;;;;;23.20;4.38;;;;;;;20.88;69.73;101658.31;5027566;28;20030;-70
2023/09/28 10:39:31;;;;;;;17.92;3.97;;;;;;;20.83;70.03;101660.69;5043612;28;20132;-71
2023/09/28 10:42:04;;;;;;;21.73;4.15;;;;;;;20.95;71.20;101664.09;5029836;28;20370;-70
2023/09/28 10:44:31;;;;;;;18.30;4.07;;;;;;;21.02;71.00;101666.06;5028257;28;20037;-70
2023/09/28 10:46:57;;;;;;;17.17;4.25;;;;;;;21.15;70.67;101672.06;5027054;28;20033;-70
2023/09/28 10:49:24;;;;;;;20.50;4.45;;;;;;;21.25;71.48;101660.88;5027147;28;20043;-71
2023/09/28 10:51:54;;;;;;;21.20;4.15;;;;;;;21.46;68.96;101665.25;5026982;28;20560;-69
2023/09/28 10:54:20;;;;;;;18.20;3.83;;;;;;;21.66;66.88;101669.53;5027509;28;20041;-71
2023/09/28 10:56:49;;;;;;;18.90;3.97;;;;;;;21.74;67.77;101664.03;5028808;28;20599;-70
2023/09/28 10:59:17;;;;;;;17.95;4.03;;;;;;;21.73;67.03;101661.41;5027973;28;20103;-70
2023/09/28 11:01:47;;;;;;;19.48;3.95;;;;;;;21.59;64.58;101672.09;5027790;28;20049;-70
2023/09/28 11:04:13;;;;;;;14.43;3.28;;;;;;;21.65;63.92;101670.56;5028073;28;20053;-70
2023/09/28 11:06:41;;;;;;;18.95;3.75;;;;;;;21.58;65.81;101677.78;5028308;28;20570;-70
2023/09/28 11:09:09;;;;;;;14.38;3.55;;;;;;;21.57;69.21;101690.75;5040998;28;20037;-70
2023/09/28 11:11:37;;;;;;;19.77;3.42;;;;;;;21.45;66.73;101689.31;5043286;28;20034;-69
2023/09/28 11:14:04;;;;;;;18.50;3.65;;;;;;;21.48;68.37;101691.72;5028344;28;20044;-70